Time;durP1;ratioP1;P1;durP2;ratioP2;P2;SDS_P1;SDS_P2;PMS_P1;PMS_P2;Temp;Humidity;BMP_temperature;BMP_pressure;BME280_temperature;BME280_humidity;BME280_pressure;Samples;Min_cycle;Max_cycle;Signal;HPM_P1;HPM_P2
2022/11/20 00:01:13;;;;;;;1.88;1.88;;;-1.30;99.90;;;;;;5002251;28;20189;-76
2022/11/20 00:03:39;;;;;;;3.17;3.08;;;-1.40;99.90;;;;;;5006997;28;20065;-76
2022/11/20 00:06:16;;;;;;;2.00;2.00;;;-1.40;99.90;;;;;;5009316;28;20084;-75
2022/11/20 00:08:42;;;;;;;2.35;2.25;;;-1.50;99.90;;;;;;5003893;28;20116;-76
2022/11/20 00:11:08;;;;;;;2.17;2.15;;;-1.50;99.90;;;;;;5034952;28;20026;-76
2022/11/20 00:13:34;;;;;;;2.10;2.10;;;-1.40;99.90;;;;;;5017165;28;20037;-75
2022/11/20 00:16:01;;;;;;;2.00;2.00;;;-1.40;99.90;;;;;;5021626;28;20514;-75
2022/11/20 00:18:27;;;;;;;1.92;1.92;;;-1.30;99.90;;;;;;5034653;28;20704;-75
2022/11/20 00:20:53;;;;;;;3.75;3.65;;;-1.30;99.90;;;;;;5034726;28;20079;-75
2022/11/20 00:23:19;;;;;;;2.03;2.03;;;-1.40;99.90;;;;;;5016838;28;20120;-76
2022/11/20 00:25:45;;;;;;;2.03;2.00;;;-1.40;99.90;;;;;;5021428;28;20136;-76
2022/11/20 00:28:11;;;;;;;2.10;2.10;;;-1.30;99.90;;;;;;5009214;28;20052;-75
2022/11/20 00:30:37;;;;;;;1.98;1.98;;;-1.30;99.90;;;;;;5029189;28;20033;-75
2022/11/20 00:33:02;;;;;;;2.33;2.22;;;-1.20;99.90;;;;;;5034596;28;20026;-75
2022/11/20 00:35:28;;;;;;;2.92;2.83;;;-1.20;99.90;;;;;;5034611;28;20033;-75
2022/11/20 00:37:53;;;;;;;8.35;6.07;;;-1.40;99.90;;;;;;5034249;28;20072;-74
2022/11/20 00:40:19;;;;;;;1.77;1.77;;;-1.60;99.90;;;;;;5034515;28;20025;-74
2022/11/20 00:42:44;;;;;;;2.60;2.50;;;-1.70;99.90;;;;;;5034368;28;20047;-75
2022/11/20 00:45:10;;;;;;;2.53;2.42;;;-1.60;99.90;;;;;;5035677;28;20029;-74
2022/11/20 00:47:35;;;;;;;3.83;3.65;;;-1.70;99.90;;;;;;5036416;28;20475;-74
2022/11/20 00:50:01;;;;;;;2.53;2.42;;;-1.60;99.90;;;;;;5036803;28;20048;-75
2022/11/20 00:52:26;;;;;;;1.90;1.90;;;-1.60;99.90;;;;;;5036619;28;20044;-75
2022/11/20 00:54:52;;;;;;;2.88;2.78;;;-1.50;99.90;;;;;;5036152;28;20055;-75
2022/11/20 00:57:17;;;;;;;2.45;2.35;;;-1.60;99.90;;;;;;5036269;28;20100;-75
2022/11/20 00:59:43;;;;;;;2.30;2.20;;;-1.80;99.90;;;;;;5036245;28;20026;-75
2022/11/20 01:02:08;;;;;;;2.97;2.88;;;-1.80;99.90;;;;;;5036090;28;20510;-75
2022/11/20 01:04:34;;;;;;;3.67;3.38;;;-1.90;99.90;;;;;;5035251;28;20036;-75
2022/11/20 01:06:59;;;;;;;3.95;3.65;;;-1.80;99.90;;;;;;5033901;28;20076;-75
2022/11/20 01:09:25;;;;;;;3.58;3.47;;;-1.90;99.90;;;;;;5033971;28;20108;-75
2022/11/20 01:11:51;;;;;;;8.10;6.82;;;-2.00;99.90;;;;;;5015970;28;20523;-75
2022/11/20 01:14:19;;;;;;;3.92;3.72;;;-1.90;99.90;;;;;;5033909;28;20111;-75
2022/11/20 01:16:48;;;;;;;4.90;4.55;;;-1.90;99.90;;;;;;5032568;28;20029;-74
2022/11/20 01:19:16;;;;;;;3.47;3.30;;;-1.80;99.90;;;;;;5016274;28;20452;-74
2022/11/20 01:21:44;;;;;;;2.45;2.35;;;-1.70;99.90;;;;;;5033900;28;20433;-74
2022/11/20 01:24:15;;;;;;;6.45;6.13;;;-1.60;99.90;;;;;;5033446;28;20029;-74
2022/11/20 01:26:42;;;;;;;2.15;2.13;;;-1.50;99.90;;;;;;5033472;28;20045;-75
2022/11/20 01:29:16;;;;;;;2.38;2.28;;;-1.50;99.90;;;;;;5033284;28;20391;-75
2022/11/20 01:31:43;;;;;;;3.25;3.15;;;-1.60;99.90;;;;;;5023541;28;20030;-76
2022/11/20 01:34:17;;;;;;;8.48;4.47;;;-1.50;99.90;;;;;;5012306;28;20029;-77
2022/11/20 01:36:43;;;;;;;5.32;4.80;;;-1.50;99.90;;;;;;5022435;28;20020;-76
2022/11/20 01:39:18;;;;;;;2.50;2.40;;;-1.60;99.90;;;;;;5026574;28;20089;-77
2022/11/20 01:44:47;;;;;;;2.40;2.30;;;-1.50;99.90;;;;;;5022058;28;20251;-77
2022/11/20 01:47:16;;;;;;;11.55;10.75;;;-1.60;99.90;;;;;;5032986;28;20029;-77
2022/11/20 01:49:57;;;;;;;2.50;2.40;;;-1.40;99.90;;;;;;5015361;28;20391;-77
2022/11/20 01:52:29;;;;;;;2.25;2.15;;;-1.30;99.90;;;;;;5008833;28;20026;-75
2022/11/20 01:55:01;;;;;;;2.13;2.10;;;-1.50;99.90;;;;;;5027098;28;20025;-75
2022/11/20 01:57:29;;;;;;;1.92;1.92;;;-1.40;99.90;;;;;;5015040;28;20407;-75
2022/11/20 02:00:02;;;;;;;3.13;3.03;;;-1.50;99.90;;;;;;5033014;28;20075;-75
2022/11/20 02:02:28;;;;;;;2.92;2.83;;;-1.50;99.90;;;;;;5032996;28;20021;-75
2022/11/20 02:05:00;;;;;;;2.50;2.40;;;-1.60;99.90;;;;;;5032954;28;20578;-75
2022/11/20 02:07:27;;;;;;;3.67;3.47;;;-1.50;99.90;;;;;;5032727;28;20108;-75
2022/11/20 02:09:53;;;;;;;2.92;2.72;;;-1.50;99.90;;;;;;5022533;28;20446;-76
2022/11/20 02:15:02;;;;;;;2.83;2.72;;;-1.60;99.90;;;;;;5032795;28;20109;-76
2022/11/20 02:17:28;;;;;;;2.53;2.42;;;-1.40;99.90;;;;;;5032475;28;20053;-76
2022/11/20 02:19:54;;;;;;;3.90;3.67;;;-1.40;99.90;;;;;;5014795;28;20049;-75
2022/11/20 02:22:28;;;;;;;2.45;2.35;;;-1.50;99.90;;;;;;5019790;28;20444;-75
2022/11/20 02:24:54;;;;;;;1.85;1.85;;;-1.40;99.90;;;;;;5032389;28;20033;-75
2022/11/20 02:27:20;;;;;;;3.35;3.15;;;-1.30;99.90;;;;;;5000879;28;20112;-76
2022/11/20 02:29:53;;;;;;;3.25;3.15;;;-1.40;99.90;;;;;;5032443;28;20029;-75
2022/11/20 02:32:33;;;;;;;2.15;2.13;;;-1.30;99.90;;;;;;5018968;28;20026;-75
2022/11/20 02:35:10;;;;;;;3.50;3.40;;;-1.40;99.90;;;;;;5032320;28;20083;-75
2022/11/20 02:37:40;;;;;;;3.35;3.08;;;-1.50;99.90;;;;;;5032328;28;20101;-76
2022/11/20 02:40:06;;;;;;;1.98;1.98;;;-1.50;99.90;;;;;;5014534;28;20053;-74
2022/11/20 02:42:31;;;;;;;4.30;3.53;;;-1.50;99.90;;;;;;5032004;28;20036;-74
2022/11/20 02:44:57;;;;;;;2.50;2.40;;;-1.40;99.90;;;;;;5032083;28;20029;-74
2022/11/20 02:47:22;;;;;;;2.63;2.53;;;-1.40;99.90;;;;;;5031774;28;20034;-74
2022/11/20 02:49:48;;;;;;;2.85;2.75;;;-1.50;99.90;;;;;;5032017;28;20041;-74
2022/11/20 02:52:13;;;;;;;2.55;2.45;;;-1.50;99.90;;;;;;5031830;28;20116;-74
2022/11/20 02:54:39;;;;;;;2.88;2.78;;;-1.40;99.90;;;;;;5031928;28;20096;-75
2022/11/20 02:57:04;;;;;;;2.40;2.30;;;-1.20;99.90;;;;;;5013888;28;20566;-74
2022/11/20 02:59:30;;;;;;;4.82;4.63;;;-1.20;99.90;;;;;;5014167;28;20109;-74
2022/11/20 03:01:55;;;;;;;2.45;2.35;;;-1.20;99.90;;;;;;5031724;28;20112;-76
2022/11/20 03:04:21;;;;;;;2.00;2.00;;;-1.10;99.90;;;;;;5031738;28;20091;-75
2022/11/20 03:06:46;;;;;;;2.40;2.30;;;-1.00;99.90;;;;;;5031726;28;20090;-75
2022/11/20 03:09:12;;;;;;;3.65;3.55;;;-1.10;99.90;;;;;;5014720;28;20116;-76
2022/11/20 03:11:38;;;;;;;2.20;2.15;;;-1.20;99.90;;;;;;5028655;28;20032;-76
2022/11/20 03:14:04;;;;;;;4.05;3.13;;;-1.30;99.90;;;;;;5031672;28;20022;-75
2022/11/20 03:16:31;;;;;;;5.45;5.15;;;-1.30;99.90;;;;;;5000587;28;20389;-76
2022/11/20 03:18:57;;;;;;;2.95;2.85;;;-1.30;99.90;;;;;;5020199;28;20037;-75
2022/11/20 03:21:22;;;;;;;2.42;2.33;;;-1.30;99.90;;;;;;5025248;28;20026;-76
2022/11/20 03:23:48;;;;;;;2.40;2.30;;;-1.40;99.90;;;;;;5005566;28;20532;-76
2022/11/20 03:26:19;;;;;;;2.80;2.70;;;-1.30;99.90;;;;;;5031637;28;20067;-76
2022/11/20 03:29:00;;;;;;;6.40;6.10;;;-1.20;99.90;;;;;;5031507;28;20028;-76
2022/11/20 03:31:37;;;;;;;3.42;3.30;;;-1.10;99.90;;;;;;5001863;28;20124;-76
2022/11/20 03:34:04;;;;;;;3.42;3.33;;;-1.30;99.90;;;;;;5031429;28;20021;-75
2022/11/20 03:36:29;;;;;;;2.42;2.33;;;-1.00;99.90;;;;;;5013720;28;20032;-75
2022/11/20 03:38:56;;;;;;;4.63;4.43;;;-0.90;99.90;;;;;;5013789;28;20033;-75
2022/11/20 03:41:28;;;;;;;2.58;2.47;;;-1.00;99.90;;;;;;5035465;28;20040;-76
2022/11/20 03:43:56;;;;;;;2.17;2.13;;;-1.10;99.90;;;;;;5035366;28;20075;-76
2022/11/20 03:46:22;;;;;;;3.20;3.10;;;-1.00;99.90;;;;;;5007545;28;20092;-76
2022/11/20 03:48:48;;;;;;;2.60;2.50;;;-1.00;99.90;;;;;;5014239;28;20029;-76
2022/11/20 03:51:19;;;;;;;3.25;3.10;;;-1.00;99.90;;;;;;5035332;28;20156;-75
2022/11/20 03:53:46;;;;;;;9.73;9.07;;;-0.90;99.90;;;;;;5035288;28;20034;-76
2022/11/20 03:56:13;;;;;;;3.30;3.20;;;-0.90;99.90;;;;;;5035232;28;20033;-76
2022/11/20 03:58:40;;;;;;;2.60;2.50;;;-0.90;99.90;;;;;;5035009;28;20033;-75
2022/11/20 04:01:15;;;;;;;2.28;2.17;;;-1.00;99.90;;;;;;5035116;28;20452;-76
2022/11/20 04:03:41;;;;;;;1.90;1.90;;;-1.20;99.90;;;;;;5034943;28;20036;-75
2022/11/20 04:06:10;;;;;;;5.18;4.40;;;-1.20;99.90;;;;;;5017273;28;20040;-74
2022/11/20 04:08:36;;;;;;;2.40;2.30;;;-1.30;99.90;;;;;;5034775;28;20021;-75
2022/11/20 04:11:14;;;;;;;3.97;3.67;;;-1.30;99.90;;;;;;5034810;28;20430;-75
2022/11/20 04:13:41;;;;;;;6.07;5.53;;;-1.40;99.90;;;;;;5034893;28;20487;-75
2022/11/20 04:16:08;;;;;;;2.95;2.85;;;-1.50;99.90;;;;;;5021583;28;20026;-75
2022/11/20 04:18:34;;;;;;;3.05;2.95;;;-1.40;99.90;;;;;;5026154;28;20426;-75
2022/11/20 04:21:01;;;;;;;10.07;8.68;;;-1.40;99.90;;;;;;5010684;28;20048;-76
2022/11/20 04:23:26;;;;;;;3.80;3.53;;;-1.30;99.90;;;;;;5005796;28;20033;-76
2022/11/20 04:25:52;;;;;;;2.50;2.40;;;-1.30;99.90;;;;;;5034755;28;20021;-76
2022/11/20 04:28:18;;;;;;;2.90;2.80;;;-1.10;99.90;;;;;;5008302;28;20076;-76
2022/11/20 04:30:44;;;;;;;3.08;2.97;;;-1.10;99.90;;;;;;5029859;28;20029;-76
2022/11/20 04:33:10;;;;;;;5.60;5.07;;;-1.00;99.90;;;;;;5034582;28;20490;-75
2022/11/20 04:35:36;;;;;;;2.80;2.70;;;-1.10;99.90;;;;;;5003550;28;20030;-76
2022/11/20 04:38:01;;;;;;;4.07;2.97;;;-1.20;99.90;;;;;;5034349;28;20484;-76
2022/11/20 04:40:30;;;;;;;3.53;3.42;;;-1.20;99.90;;;;;;5034464;28;20025;-75
2022/11/20 04:42:56;;;;;;;2.88;2.78;;;-1.30;99.90;;;;;;5034350;28;20036;-76
2022/11/20 04:45:23;;;;;;;7.32;6.45;;;-1.30;99.90;;;;;;5020887;28;20018;-76
2022/11/20 04:47:48;;;;;;;2.60;2.50;;;-1.30;99.90;;;;;;5034187;28;20064;-76
2022/11/20 04:50:14;;;;;;;2.85;2.75;;;-1.20;99.90;;;;;;5033971;28;20053;-75
2022/11/20 04:52:39;;;;;;;4.20;4.03;;;-1.10;99.90;;;;;;5016343;28;20064;-75
2022/11/20 04:55:06;;;;;;;2.70;2.60;;;-1.10;99.90;;;;;;5016300;28;20481;-75
2022/11/20 04:57:31;;;;;;;3.38;3.28;;;-1.10;99.90;;;;;;5016076;28;20037;-75
2022/11/20 04:59:57;;;;;;;2.60;2.50;;;-1.10;99.90;;;;;;5033920;28;20097;-75
2022/11/20 05:02:23;;;;;;;2.50;2.40;;;-1.10;99.90;;;;;;5016307;28;20029;-75
2022/11/20 05:04:48;;;;;;;2.97;2.88;;;-1.00;99.90;;;;;;5033856;28;20035;-75
2022/11/20 05:07:14;;;;;;;2.92;2.83;;;-1.00;99.90;;;;;;5033853;28;20033;-75
2022/11/20 05:09:39;;;;;;;5.13;4.88;;;-1.00;99.90;;;;;;5033851;28;20056;-75
2022/11/20 05:12:07;;;;;;;2.95;2.85;;;-0.90;99.90;;;;;;5015927;28;20029;-75
2022/11/20 05:14:33;;;;;;;2.58;2.47;;;-0.80;99.90;;;;;;5033510;28;20034;-75
2022/11/20 05:16:59;;;;;;;2.95;2.85;;;-0.90;99.90;;;;;;5033453;28;20040;-75
2022/11/20 05:19:24;;;;;;;3.35;3.25;;;-0.90;99.90;;;;;;5033732;28;20096;-76
2022/11/20 05:21:50;;;;;;;4.55;4.35;;;-0.90;99.90;;;;;;5016025;28;20025;-76
2022/11/20 05:24:15;;;;;;;2.83;2.72;;;-0.90;99.90;;;;;;5015709;28;20509;-76
2022/11/20 05:26:41;;;;;;;2.92;2.83;;;-0.70;99.90;;;;;;5033549;28;20032;-76
2022/11/20 05:29:06;;;;;;;3.13;3.03;;;-0.70;99.90;;;;;;5033457;28;20099;-75
2022/11/20 05:31:32;;;;;;;2.55;2.45;;;-0.70;99.90;;;;;;5015898;28;20026;-76
2022/11/20 05:33:57;;;;;;;5.00;4.80;;;-0.80;99.90;;;;;;5033432;28;20044;-76
2022/11/20 05:36:23;;;;;;;3.53;3.42;;;-0.80;99.90;;;;;;5015957;28;20029;-76
2022/11/20 05:38:49;;;;;;;4.00;3.78;;;-0.80;99.90;;;;;;5033313;28;20092;-75
2022/11/20 05:41:17;;;;;;;2.83;2.72;;;-1.00;99.90;;;;;;5007394;28;20026;-75
2022/11/20 05:43:44;;;;;;;3.35;3.25;;;-0.80;99.90;;;;;;5028454;28;20029;-75
2022/11/20 05:46:13;;;;;;;3.90;3.80;;;-0.80;99.90;;;;;;5033264;28;20026;-75
2022/11/20 05:48:39;;;;;;;2.97;2.88;;;-0.70;99.90;;;;;;5015092;28;20025;-75
2022/11/20 05:51:07;;;;;;;2.65;2.55;;;-0.70;99.90;;;;;;5033081;28;20036;-75
2022/11/20 05:53:34;;;;;;;3.63;3.53;;;-0.80;99.90;;;;;;5033173;28;20116;-76
2022/11/20 05:56:01;;;;;;;2.40;2.30;;;-0.70;99.90;;;;;;5015265;28;20022;-76
2022/11/20 05:58:27;;;;;;;5.07;4.88;;;-0.70;99.90;;;;;;5032780;28;20484;-76
2022/11/20 06:00:53;;;;;;;2.70;2.60;;;-0.70;99.90;;;;;;5032928;28;20109;-76
2022/11/20 06:03:19;;;;;;;2.67;2.58;;;-0.70;99.90;;;;;;5032135;28;20112;-76
2022/11/20 06:05:44;;;;;;;3.50;3.40;;;-0.80;99.90;;;;;;5032905;28;20028;-76
2022/11/20 06:08:10;;;;;;;3.10;3.00;;;-0.90;99.90;;;;;;5032621;28;20026;-77
2022/11/20 06:10:35;;;;;;;8.45;4.63;;;-0.90;99.90;;;;;;5032673;28;20025;-76
2022/11/20 06:13:01;;;;;;;3.85;3.75;;;-0.80;99.90;;;;;;5014789;28;20029;-76
2022/11/20 06:15:26;;;;;;;3.08;2.97;;;-0.70;99.90;;;;;;5032663;28;20025;-76
2022/11/20 06:17:53;;;;;;;13.80;4.95;;;-0.60;99.90;;;;;;5032344;28;20025;-77
2022/11/20 06:20:20;;;;;;;4.18;3.78;;;-0.60;99.90;;;;;;5014824;28;20021;-76
2022/11/20 06:22:45;;;;;;;3.30;3.20;;;-0.60;99.90;;;;;;5001375;28;20111;-76
2022/11/20 06:25:11;;;;;;;2.92;2.83;;;-0.50;99.90;;;;;;5032575;28;20053;-76
2022/11/20 06:27:36;;;;;;;5.47;5.25;;;-0.50;99.90;;;;;;4997793;28;20518;-77
2022/11/20 06:30:03;;;;;;;3.70;3.50;;;-0.70;99.90;;;;;;5023087;28;20391;-76
2022/11/20 06:32:28;;;;;;;3.10;3.00;;;-0.70;99.90;;;;;;5032154;28;20056;-77
2022/11/20 06:34:54;;;;;;;3.40;3.30;;;-0.70;99.90;;;;;;5032263;28;20426;-76
2022/11/20 06:37:19;;;;;;;2.92;2.83;;;-0.70;99.90;;;;;;5032129;28;20395;-76
2022/11/20 06:39:45;;;;;;;2.88;2.78;;;-0.60;99.90;;;;;;5014912;28;20361;-77
2022/11/20 06:42:10;;;;;;;9.00;5.43;;;-0.50;99.90;;;;;;5032257;28;20029;-76
2022/11/20 06:44:36;;;;;;;9.18;5.32;;;-0.60;99.90;;;;;;5004241;28;20096;-76
2022/11/20 06:47:01;;;;;;;3.97;3.88;;;-0.60;99.90;;;;;;5007860;28;20064;-76
2022/11/20 06:49:27;;;;;;;6.18;5.88;;;-0.50;99.90;;;;;;5004997;28;20075;-77
2022/11/20 06:51:52;;;;;;;3.75;3.65;;;-0.50;99.90;;;;;;5000985;28;20033;-76
2022/11/20 06:54:18;;;;;;;3.15;3.05;;;-0.40;99.90;;;;;;5021865;28;20041;-77
2022/11/20 06:56:47;;;;;;;3.08;2.97;;;-0.40;99.90;;;;;;5025472;28;20056;-77
2022/11/20 06:59:13;;;;;;;2.92;2.83;;;-0.50;99.90;;;;;;5005103;28;20442;-76
2022/11/20 07:01:38;;;;;;;3.50;3.40;;;-0.40;99.90;;;;;;5001120;28;20047;-76
2022/11/20 07:04:04;;;;;;;2.60;2.50;;;-0.50;99.90;;;;;;5021372;28;20060;-76
2022/11/20 07:06:30;;;;;;;3.80;3.70;;;-0.70;99.90;;;;;;5025188;28;20108;-76
2022/11/20 07:08:55;;;;;;;3.33;3.22;;;-0.70;99.90;;;;;;5022396;28;20029;-77
2022/11/20 07:11:21;;;;;;;3.03;2.92;;;-0.50;99.90;;;;;;5031563;28;20033;-77
2022/11/20 07:13:46;;;;;;;4.55;4.38;;;-0.30;99.90;;;;;;5022453;28;20036;-76
2022/11/20 07:16:12;;;;;;;3.45;3.35;;;-0.40;99.90;;;;;;5025152;28;20029;-76
2022/11/20 07:18:38;;;;;;;5.55;5.13;;;-0.40;99.90;;;;;;5020911;28;20526;-77
2022/11/20 07:21:06;;;;;;;4.78;4.57;;;-0.60;99.90;;;;;;5000606;28;20561;-77
2022/11/20 07:23:32;;;;;;;3.78;3.67;;;-0.60;99.90;;;;;;5031363;28;20111;-76
2022/11/20 07:25:57;;;;;;;3.20;3.10;;;-0.60;99.90;;;;;;5013869;28;20480;-76
2022/11/20 07:28:23;;;;;;;4.65;4.45;;;-0.60;99.90;;;;;;5031380;28;20105;-77
2022/11/20 07:30:53;;;;;;;3.97;3.85;;;-0.60;99.90;;;;;;5000544;28;20537;-76
2022/11/20 07:33:19;;;;;;;4.25;4.13;;;-0.50;99.90;;;;;;5021613;28;20022;-77
2022/11/20 07:35:45;;;;;;;3.72;3.63;;;-0.50;99.90;;;;;;5007400;28;20026;-77
2022/11/20 07:38:11;;;;;;;3.53;3.42;;;-0.60;99.90;;;;;;5021373;28;20096;-76
2022/11/20 07:40:36;;;;;;;4.97;4.82;;;-0.60;99.90;;;;;;5018332;28;20033;-77
2022/11/20 07:43:02;;;;;;;5.60;5.40;;;-0.60;99.90;;;;;;5003879;28;20018;-77
2022/11/20 07:45:27;;;;;;;4.55;4.38;;;-0.50;99.90;;;;;;5028168;28;20018;-77
2022/11/20 07:47:53;;;;;;;3.33;3.22;;;-0.40;99.90;;;;;;5013723;28;20059;-76
2022/11/20 07:50:19;;;;;;;3.75;3.65;;;-0.40;99.90;;;;;;5035735;28;20033;-77
2022/11/20 07:52:45;;;;;;;4.05;3.95;;;-0.40;99.90;;;;;;5013348;28;20044;-76
2022/11/20 07:55:11;;;;;;;9.23;8.50;;;-0.40;99.90;;;;;;5017888;28;20472;-77
2022/11/20 07:57:37;;;;;;;7.80;7.10;;;-0.50;99.90;;;;;;5020890;28;20680;-77
2022/11/20 08:00:04;;;;;;;8.98;8.57;;;-0.40;99.90;;;;;;5024594;28;20048;-77
2022/11/20 08:02:29;;;;;;;3.80;3.70;;;-0.50;99.90;;;;;;5003595;28;20026;-77
2022/11/20 08:04:55;;;;;;;6.80;6.50;;;-0.50;99.90;;;;;;5013358;28;20075;-78
2022/11/20 08:07:20;;;;;;;3.78;3.67;;;-0.30;99.90;;;;;;5030624;28;20029;-76
2022/11/20 08:09:46;;;;;;;3.58;3.47;;;-0.10;99.90;;;;;;5013217;28;20099;-77
2022/11/20 08:15:06;;;;;;;3.38;3.28;;;-0.30;99.90;;;;;;5031340;28;20037;-77
2022/11/20 08:17:32;;;;;;;3.38;3.28;;;-0.30;99.90;;;;;;5017381;28;20014;-77
2022/11/20 08:19:57;;;;;;;5.07;4.88;;;-0.20;99.90;;;;;;5031013;28;20032;-78
2022/11/20 08:22:23;;;;;;;3.80;3.70;;;-0.10;99.90;;;;;;5013349;28;20017;-77
2022/11/20 08:24:49;;;;;;;3.75;3.65;;;-0.10;99.90;;;;;;5030854;28;20045;-76
2022/11/20 08:27:14;;;;;;;4.93;4.75;;;0.10;99.90;;;;;;5034111;28;20495;-77
2022/11/20 08:29:40;;;;;;;7.97;7.47;;;0.30;99.90;;;;;;5034637;28;20495;-76
2022/11/20 08:32:05;;;;;;;4.10;4.00;;;0.50;99.90;;;;;;5003584;28;20495;-77
2022/11/20 08:34:31;;;;;;;3.63;3.53;;;0.30;99.90;;;;;;5027656;28;20037;-77
2022/11/20 08:36:56;;;;;;;4.43;4.22;;;0.10;99.90;;;;;;5009537;28;20017;-77
2022/11/20 08:39:22;;;;;;;5.30;5.10;;;0.00;99.90;;;;;;5003399;28;20029;-75
2022/11/20 08:41:47;;;;;;;3.72;3.63;;;-0.10;99.90;;;;;;5034294;28;20083;-76
2022/11/20 08:44:13;;;;;;;3.50;3.40;;;0.00;99.90;;;;;;5034314;28;20033;-76
2022/11/20 08:46:40;;;;;;;3.53;3.42;;;0.00;99.90;;;;;;5016465;28;20029;-77
2022/11/20 08:49:09;;;;;;;3.92;3.83;;;0.10;99.90;;;;;;5015978;28;20032;-76
2022/11/20 08:51:35;;;;;;;4.50;4.30;;;0.10;99.90;;;;;;5021013;28;20476;-76
2022/11/20 08:54:01;;;;;;;4.47;4.38;;;0.10;99.90;;;;;;5027476;28;20040;-77
2022/11/20 08:56:27;;;;;;;4.63;4.43;;;0.10;99.90;;;;;;5027316;28;20534;-76
2022/11/20 08:58:53;;;;;;;4.15;4.05;;;0.10;99.90;;;;;;5032889;28;20029;-75
2022/11/20 09:01:20;;;;;;;4.20;4.10;;;0.10;99.90;;;;;;5015310;28;20108;-76
2022/11/20 09:03:46;;;;;;;4.20;4.10;;;0.20;99.90;;;;;;5020576;28;20064;-77
2022/11/20 09:06:12;;;;;;;3.85;3.75;;;0.30;99.90;;;;;;5033893;28;20064;-76
2022/11/20 09:08:37;;;;;;;3.88;3.78;;;0.50;99.90;;;;;;5015703;28;20037;-76
2022/11/20 09:11:04;;;;;;;3.65;3.55;;;0.60;99.90;;;;;;5036007;28;20051;-76
2022/11/20 09:13:29;;;;;;;3.95;3.85;;;0.60;99.90;;;;;;5034029;28;20025;-76
2022/11/20 09:15:56;;;;;;;4.97;4.78;;;0.60;99.90;;;;;;5015842;28;20434;-76
2022/11/20 09:18:22;;;;;;;3.53;3.42;;;0.70;99.90;;;;;;5033167;28;20032;-76
2022/11/20 09:20:48;;;;;;;4.53;4.32;;;0.80;99.90;;;;;;5033552;28;20030;-76
2022/11/20 09:23:14;;;;;;;4.80;4.63;;;0.80;99.90;;;;;;5033488;28;20064;-77
2022/11/20 09:25:40;;;;;;;7.15;6.88;;;0.60;99.90;;;;;;5015654;28;20021;-76
2022/11/20 09:28:05;;;;;;;5.05;4.82;;;0.60;99.90;;;;;;5015137;28;20060;-76
2022/11/20 09:30:31;;;;;;;4.95;4.75;;;0.60;99.90;;;;;;5016108;28;20044;-76
2022/11/20 09:32:57;;;;;;;3.92;3.83;;;0.60;99.90;;;;;;5015367;28;20403;-75
2022/11/20 09:35:22;;;;;;;7.32;6.90;;;0.50;99.90;;;;;;5033985;28;20026;-76
2022/11/20 09:37:48;;;;;;;3.95;3.85;;;0.40;99.90;;;;;;5014039;28;20034;-76
2022/11/20 09:40:21;;;;;;;5.15;4.95;;;0.50;99.90;;;;;;5033260;28;20453;-75
2022/11/20 09:42:58;;;;;;;4.38;4.20;;;0.40;99.90;;;;;;5015309;28;20167;-76
2022/11/20 09:45:47;;;;;;;3.80;3.70;;;0.30;99.90;;;;;;5015467;28;20068;-76
2022/11/20 09:48:28;;;;;;;11.65;11.10;;;0.40;99.90;;;;;;5014872;28;20043;-76
2022/11/20 09:51:08;;;;;;;5.30;5.10;;;0.40;99.90;;;;;;5021246;28;20104;-76
2022/11/20 09:53:53;;;;;;;13.55;7.22;;;0.50;99.90;;;;;;5015087;28;20032;-76
2022/11/20 09:56:21;;;;;;;7.78;7.30;;;0.50;99.90;;;;;;5033034;28;20021;-76
2022/11/20 09:58:51;;;;;;;4.20;4.10;;;0.50;99.90;;;;;;5032223;28;20391;-76
2022/11/20 10:01:20;;;;;;;5.97;5.78;;;0.50;99.90;;;;;;5032914;28;20072;-76
2022/11/20 10:04:11;;;;;;;4.78;4.63;;;0.50;99.90;;;;;;5033411;28;20017;-76
2022/11/20 10:06:49;;;;;;;4.65;4.55;;;0.60;99.90;;;;;;5018848;28;20038;-75
2022/11/20 10:09:37;;;;;;;4.82;4.60;;;0.90;99.90;;;;;;5032843;28;20075;-76
2022/11/20 10:12:26;;;;;;;5.45;5.25;;;0.80;99.90;;;;;;5012788;28;20029;-76
2022/11/20 10:15:07;;;;;;;10.45;9.90;;;0.80;99.90;;;;;;5000228;28;20021;-77
2022/11/20 10:18:06;;;;;;;6.10;5.90;;;0.70;99.90;;;;;;5032024;28;20100;-76
2022/11/20 10:20:50;;;;;;;5.50;5.13;;;0.60;99.90;;;;;;5015039;28;20017;-76
2022/11/20 10:23:29;;;;;;;5.25;5.05;;;0.60;99.90;;;;;;5020176;28;20025;-76
2022/11/20 10:26:22;;;;;;;6.25;5.97;;;0.80;99.90;;;;;;5032411;28;20044;-77
2022/11/20 10:29:00;;;;;;;5.13;4.93;;;1.20;99.90;;;;;;5014044;28;20025;-76
2022/11/20 10:31:37;;;;;;;6.07;5.80;;;1.20;99.90;;;;;;5002788;28;20029;-76
2022/11/20 10:34:12;;;;;;;4.35;4.25;;;1.10;99.90;;;;;;5001374;28;20017;-76
2022/11/20 10:36:52;;;;;;;6.00;5.60;;;1.20;99.90;;;;;;5032223;28;20021;-76
2022/11/20 10:39:44;;;;;;;4.63;4.53;;;1.10;99.90;;;;;;5032235;28;20114;-76
2022/11/20 10:42:16;;;;;;;6.15;5.95;;;1.10;99.90;;;;;;5032079;28;20025;-76
2022/11/20 10:45:01;;;;;;;7.78;7.35;;;1.20;99.90;;;;;;5014306;28;20028;-76
2022/11/20 10:47:28;;;;;;;7.90;7.57;;;1.10;99.90;;;;;;5031680;28;20183;-76
2022/11/20 10:49:57;;;;;;;8.13;7.65;;;1.20;99.90;;;;;;5031805;28;20029;-75
2022/11/20 10:52:50;;;;;;;10.18;9.23;;;1.30;99.90;;;;;;5000914;28;20026;-76
2022/11/20 10:55:37;;;;;;;6.95;6.38;;;1.30;99.90;;;;;;5014261;28;20502;-75
2022/11/20 10:58:25;;;;;;;5.60;5.40;;;1.00;99.90;;;;;;5013754;28;20029;-75
2022/11/20 11:00:50;;;;;;;5.90;5.63;;;0.90;99.90;;;;;;5004445;28;20075;-76
2022/11/20 11:03:30;;;;;;;6.03;5.82;;;1.10;99.90;;;;;;5025476;28;20105;-76
2022/11/20 11:06:12;;;;;;;5.70;5.50;;;1.10;99.90;;;;;;5023689;28;20476;-76
2022/11/20 11:08:39;;;;;;;6.20;6.00;;;1.20;99.90;;;;;;5018595;28;20025;-76
2022/11/20 11:11:26;;;;;;;6.90;6.50;;;1.30;99.90;;;;;;5031585;28;20025;-76
2022/11/20 11:13:52;;;;;;;8.43;8.00;;;1.30;99.90;;;;;;5013921;28;20108;-75
2022/11/20 11:16:24;;;;;;;13.23;12.65;;;1.30;99.90;;;;;;5031422;28;20563;-76
2022/11/20 11:18:51;;;;;;;6.03;5.82;;;1.60;99.90;;;;;;5030754;28;20025;-76
2022/11/20 11:21:24;;;;;;;8.60;8.07;;;1.50;99.90;;;;;;5031593;28;20032;-76
2022/11/20 11:23:59;;;;;;;12.05;9.07;;;1.50;99.90;;;;;;5013728;28;20037;-76
2022/11/20 11:26:25;;;;;;;5.47;5.28;;;1.40;99.90;;;;;;5031588;28;20521;-76
2022/11/20 11:28:55;;;;;;;5.00;4.80;;;1.40;99.90;;;;;;5017964;28;20030;-76
2022/11/20 11:31:28;;;;;;;11.88;10.68;;;1.60;99.90;;;;;;5018495;28;20487;-76
2022/11/20 11:34:15;;;;;;;5.53;5.32;;;1.90;99.90;;;;;;5031420;28;20029;-76
2022/11/20 11:36:41;;;;;;;6.45;6.25;;;1.90;99.90;;;;;;5031375;28;20025;-76
2022/11/20 11:39:13;;;;;;;6.45;6.25;;;2.10;99.90;;;;;;5031105;28;20048;-76
2022/11/20 11:41:39;;;;;;;6.85;6.57;;;2.60;99.90;;;;;;5031445;28;20026;-75
2022/11/20 11:47:31;;;;;;;7.18;6.88;;;2.60;99.90;;;;;;5031095;28;20035;-76
2022/11/20 11:50:08;;;;;;;7.63;7.32;;;2.00;99.90;;;;;;5031348;28;20448;-75
2022/11/20 11:52:44;;;;;;;6.93;6.72;;;1.90;99.90;;;;;;5011553;28;20084;-76
2022/11/20 11:55:14;;;;;;;6.72;6.32;;;2.00;99.90;;;;;;5009394;28;20446;-75
2022/11/20 11:57:55;;;;;;;6.50;6.30;;;1.90;99.90;;;;;;5012796;28;20392;-76
2022/11/20 12:00:22;;;;;;;7.15;6.95;;;2.00;99.90;;;;;;5032333;28;20021;-76
2022/11/20 12:03:18;;;;;;;7.07;6.85;;;2.00;99.90;;;;;;5017229;28;20057;-76
2022/11/20 12:05:49;;;;;;;7.83;7.53;;;2.50;99.90;;;;;;5024142;28;20508;-76
2022/11/20 12:08:44;;;;;;;8.82;8.43;;;2.20;99.90;;;;;;5034506;28;20450;-76
2022/11/20 12:11:19;;;;;;;6.45;6.25;;;2.40;99.90;;;;;;5011373;28;20045;-76
2022/11/20 12:13:58;;;;;;;7.97;7.68;;;2.40;99.90;;;;;;5034924;28;20024;-76
2022/11/20 12:16:24;;;;;;;7.45;7.15;;;2.30;99.90;;;;;;5034764;28;20107;-76
2022/11/20 12:18:52;;;;;;;7.35;7.10;;;2.20;99.90;;;;;;5034081;28;20032;-76
2022/11/20 12:21:37;;;;;;;8.35;8.05;;;2.20;99.90;;;;;;5034731;28;20403;-76
2022/11/20 12:24:39;;;;;;;7.18;6.95;;;2.40;99.90;;;;;;5034320;28;20030;-76
2022/11/20 12:27:36;;;;;;;7.00;6.80;;;2.20;99.90;;;;;;5034111;28;20033;-76
2022/11/20 12:30:28;;;;;;;7.57;7.28;;;2.30;99.90;;;;;;5024556;28;20095;-76
2022/11/20 12:33:15;;;;;;;8.43;7.63;;;2.40;99.90;;;;;;5016954;28;20040;-76
2022/11/20 12:35:49;;;;;;;9.85;9.45;;;2.50;99.90;;;;;;5034554;28;20112;-76
2022/11/20 12:38:49;;;;;;;5.97;5.78;;;2.20;99.90;;;;;;5034021;28;20029;-76
2022/11/20 12:47:39;;;;;;;8.15;7.82;;;2.10;99.90;;;;;;5033776;28;20447;-76
2022/11/20 12:50:35;;;;;;;8.90;8.18;;;2.00;99.90;;;;;;5034526;28;20037;-76
2022/11/20 12:53:05;;;;;;;6.70;6.50;;;2.00;99.90;;;;;;5034202;28;20036;-76
2022/11/20 12:56:10;;;;;;;6.55;6.35;;;2.10;99.90;;;;;;5010175;28;20076;-75
2022/11/20 12:58:50;;;;;;;6.78;6.55;;;1.90;99.90;;;;;;4988467;28;20037;-76
2022/11/20 13:01:49;;;;;;;6.32;6.13;;;1.90;99.90;;;;;;5034238;28;20028;-76
2022/11/20 13:04:35;;;;;;;7.65;7.35;;;1.80;99.90;;;;;;5025489;28;20028;-75
2022/11/20 13:07:08;;;;;;;7.68;7.38;;;1.80;99.90;;;;;;5033684;28;20028;-76
2022/11/20 13:09:40;;;;;;;9.10;8.70;;;1.70;99.90;;;;;;5016223;28;20083;-76
2022/11/20 13:12:11;;;;;;;7.10;6.85;;;1.90;99.90;;;;;;5016101;28;20041;-76
2022/11/20 13:14:51;;;;;;;7.28;7.00;;;1.90;99.90;;;;;;5033893;28;20060;-75
2022/11/20 13:17:38;;;;;;;7.63;7.32;;;1.90;99.90;;;;;;5004376;28;20033;-76
2022/11/20 13:20:12;;;;;;;6.72;6.45;;;1.80;99.90;;;;;;5034002;28;20032;-76
2022/11/20 13:22:46;;;;;;;6.00;5.80;;;1.90;99.90;;;;;;5033707;28;20033;-76